createdAt,value
2019-05-07T00:00:17.294Z,3.4
2019-05-07T00:02:41.688Z,3.5
2019-05-07T00:03:53.919Z,3.5
2019-05-07T00:05:06.009Z,3.5
2019-05-07T00:06:18.028Z,3.5
2019-05-07T00:07:30.543Z,3.5
2019-05-07T00:08:42.699Z,3.6
2019-05-07T00:09:54.897Z,3.5
2019-05-07T00:11:07.124Z,3.5
2019-05-07T00:12:19.295Z,3.4
2019-05-07T00:13:31.494Z,3.5
2019-05-07T00:14:43.069Z,3.3
2019-05-07T00:15:55.893Z,3.4
2019-05-07T00:17:08.094Z,3.5
2019-05-07T00:18:20.323Z,3.3
2019-05-07T00:19:32.483Z,3.4
2019-05-07T00:20:44.683Z,3.4
2019-05-07T00:21:56.881Z,3.4
2019-05-07T00:23:09.083Z,3.5
2019-05-07T00:24:21.334Z,3.4
2019-05-07T00:25:33.476Z,3.4
2019-05-07T00:26:45.690Z,3.3
2019-05-07T00:27:57.877Z,3.4
2019-05-07T00:29:10.000Z,3.2
2019-05-07T00:30:22.279Z,3.3
2019-05-07T00:31:34.485Z,3.4
2019-05-07T00:32:46.688Z,3.3
2019-05-07T00:33:59.000Z,3.3
2019-05-07T00:35:11.080Z,3.3
2019-05-07T00:36:23.282Z,3.4
2019-05-07T00:37:35.479Z,3.4
2019-05-07T00:38:47.688Z,3.4
2019-05-07T00:39:59.881Z,3.4
2019-05-07T00:41:12.093Z,3.4
2019-05-07T00:42:24.274Z,3.3
2019-05-07T00:44:48.679Z,3.4
2019-05-07T00:46:00.874Z,3.3
2019-05-07T00:47:13.079Z,3.4
2019-05-07T00:48:25.300Z,3.5
2019-05-07T00:49:37.483Z,3.5
2019-05-07T00:50:49.680Z,3.6
2019-05-07T00:52:01.863Z,3.8
2019-05-07T00:53:14.079Z,3.7
2019-05-07T00:54:26.274Z,3.9
2019-05-07T00:55:38.486Z,4
2019-05-07T00:56:50.667Z,4.1
2019-05-07T00:58:02.869Z,3.9
2019-05-07T00:59:15.063Z,4
2019-05-07T01:00:27.267Z,4
2019-05-07T01:01:39.468Z,3.9
2019-05-07T01:02:51.066Z,3.9
2019-05-07T01:04:03.866Z,3.8
2019-05-07T01:05:16.059Z,3.7
2019-05-07T01:06:28.267Z,3.8
2019-05-07T01:07:40.469Z,3.8
2019-05-07T01:08:52.659Z,3.6
2019-05-07T01:10:04.876Z,3.6
2019-05-07T01:11:17.067Z,3.4
2019-05-07T01:12:29.266Z,3.7
2019-05-07T01:13:41.467Z,3.4
2019-05-07T01:14:53.006Z,3.5
2019-05-07T01:16:05.086Z,3.4
2019-05-07T01:17:18.190Z,3.4
2019-05-07T01:18:30.267Z,3.3
2019-05-07T01:19:42.470Z,3.2
2019-05-07T01:20:54.677Z,3.2
2019-05-07T01:22:06.858Z,3.3
2019-05-07T01:23:19.072Z,3.2
2019-05-07T01:24:31.263Z,3.1
2019-05-07T01:25:43.483Z,3
2019-05-07T01:26:55.713Z,3
2019-05-07T01:28:07.851Z,3
2019-05-07T01:29:20.049Z,2.8
2019-05-07T01:30:32.258Z,2.9
2019-05-07T01:31:44.451Z,2.9
2019-05-07T01:32:56.660Z,3
2019-05-07T01:34:08.919Z,3
2019-05-07T01:35:21.048Z,2.9
2019-05-07T01:36:33.256Z,2.9
2019-05-07T01:37:45.454Z,3.1
2019-05-07T01:38:57.651Z,3
2019-05-07T01:40:09.853Z,2.8
2019-05-07T01:41:22.052Z,3.1
2019-05-07T01:42:34.291Z,3
2019-05-07T01:43:46.453Z,3
2019-05-07T01:44:58.644Z,3
2019-05-07T01:46:10.849Z,3.1
2019-05-07T01:47:23.000Z,3
2019-05-07T01:48:35.253Z,3.1
2019-05-07T01:49:47.044Z,3
2019-05-07T01:50:59.650Z,2.9
2019-05-07T01:52:11.849Z,2.9
2019-05-07T01:53:24.050Z,2.8
2019-05-07T01:54:36.235Z,2.8
2019-05-07T01:55:48.435Z,3
2019-05-07T01:57:00.640Z,2.7
2019-05-07T01:58:12.844Z,2.9
2019-05-07T01:59:25.039Z,2.9
2019-05-07T02:00:37.240Z,2.7
2019-05-07T02:01:49.433Z,2.7
2019-05-07T02:03:01.647Z,2.7
2019-05-07T02:04:13.852Z,2.7
2019-05-07T02:05:26.043Z,2.8
2019-05-07T02:06:38.238Z,2.7
2019-05-07T02:07:50.043Z,2.7
2019-05-07T02:09:02.639Z,2.6
2019-05-07T02:10:14.841Z,2.6
2019-05-07T02:11:27.032Z,2.7
2019-05-07T02:12:39.291Z,2.6
2019-05-07T02:13:51.446Z,2.7
2019-05-07T02:15:03.640Z,2.6
2019-05-07T02:16:15.836Z,2.6
2019-05-07T02:17:28.044Z,2.5
2019-05-07T02:18:40.242Z,2.6
2019-05-07T02:19:52.440Z,2.5
2019-05-07T02:21:04.645Z,2.4
2019-05-07T02:22:16.842Z,2.4
2019-05-07T02:23:29.040Z,2.2
2019-05-07T02:24:41.225Z,2.4
2019-05-07T02:25:53.514Z,2.4
2019-05-07T02:27:05.633Z,2.2
2019-05-07T02:28:17.842Z,2.3
2019-05-07T02:29:30.024Z,2.2
2019-05-07T02:30:42.228Z,2.3
2019-05-07T02:31:54.425Z,2.3
2019-05-07T02:33:06.663Z,2.2
2019-05-07T02:34:18.831Z,2.2
2019-05-07T02:35:31.024Z,2.2
2019-05-07T02:36:43.225Z,2.2
2019-05-07T02:37:55.428Z,2.2
2019-05-07T02:39:07.650Z,2.2
2019-05-07T02:40:19.824Z,2.2
2019-05-07T02:41:32.030Z,2.2
2019-05-07T02:42:44.255Z,2.1
2019-05-07T02:43:56.428Z,2.2
2019-05-07T02:45:08.625Z,2.1
2019-05-07T02:46:20.824Z,2.1
2019-05-07T02:47:33.016Z,2.2
2019-05-07T02:48:45.224Z,2
2019-05-07T02:49:57.427Z,2.2
2019-05-07T02:51:09.617Z,2.3
2019-05-07T02:52:21.081Z,2.3
2019-05-07T02:53:34.011Z,2.4
2019-05-07T02:54:46.022Z,2.3
2019-05-07T02:55:59.450Z,2.4
2019-05-07T02:57:10.623Z,2.1
2019-05-07T02:58:22.817Z,2.3
2019-05-07T02:59:35.024Z,2.2
2019-05-07T03:00:47.229Z,2.4
2019-05-07T03:01:59.421Z,2.4
2019-05-07T03:03:11.062Z,2.2
2019-05-07T03:04:23.837Z,2.2
2019-05-07T03:05:36.010Z,2.3
2019-05-07T03:06:48.224Z,2.2
2019-05-07T03:08:00.043Z,2.4
2019-05-07T03:09:12.620Z,2.4
2019-05-07T03:10:24.835Z,2.3
2019-05-07T03:11:37.062Z,2.5
2019-05-07T03:12:49.250Z,2.4
2019-05-07T03:14:01.429Z,2.6
2019-05-07T03:15:13.632Z,2.5
2019-05-07T03:16:25.835Z,2.4
2019-05-07T03:17:38.031Z,2.5
2019-05-07T03:18:50.229Z,2.4
2019-05-07T03:20:02.433Z,2.5
2019-05-07T03:21:14.628Z,2.4
2019-05-07T03:22:26.862Z,2.5
2019-05-07T03:23:39.042Z,2.5
2019-05-07T03:24:51.233Z,2.5
2019-05-07T03:26:03.496Z,2.5
2019-05-07T03:27:15.639Z,2.4
2019-05-07T03:28:27.854Z,2.5
2019-05-07T03:29:40.037Z,2.6
2019-05-07T03:30:52.024Z,2.4
2019-05-07T03:32:04.044Z,2.4
2019-05-07T03:33:16.648Z,2.4
2019-05-07T03:34:28.857Z,2.5
2019-05-07T03:35:41.048Z,2.5
2019-05-07T03:36:53.245Z,2.5
2019-05-07T03:38:05.443Z,2.4
2019-05-07T03:39:17.066Z,2.4
2019-05-07T03:40:29.850Z,2.4
2019-05-07T03:41:42.048Z,2.4
2019-05-07T03:42:54.269Z,2.5
2019-05-07T03:44:06.458Z,2.4
2019-05-07T03:45:18.655Z,2.5
2019-05-07T03:46:30.857Z,2.5
2019-05-07T03:47:43.005Z,2.5
2019-05-07T03:48:55.260Z,2.4
2019-05-07T03:50:07.045Z,2.6
2019-05-07T03:51:19.671Z,2.5
2019-05-07T03:52:31.085Z,2.4
2019-05-07T03:53:44.066Z,2.3
2019-05-07T03:54:56.026Z,2.6
2019-05-07T03:56:08.877Z,2.6
2019-05-07T03:57:20.666Z,2.4
2019-05-07T03:58:32.086Z,2.4
2019-05-07T03:59:45.063Z,2.5
2019-05-07T04:00:57.257Z,2.4
2019-05-07T04:02:09.465Z,2.5
2019-05-07T04:03:21.675Z,2.6
2019-05-07T04:04:33.086Z,2.5
2019-05-07T04:05:46.073Z,2.4
2019-05-07T04:06:58.279Z,2.6
2019-05-07T04:08:10.473Z,2.5
2019-05-07T04:09:22.673Z,2.5
2019-05-07T04:10:34.887Z,2.5
2019-05-07T04:11:47.075Z,2.6
2019-05-07T04:12:59.286Z,2.7
2019-05-07T04:14:11.481Z,3
2019-05-07T04:15:23.692Z,2.9
2019-05-07T04:16:35.911Z,3.2
2019-05-07T04:17:48.107Z,3.1
2019-05-07T04:19:00.298Z,3.2
2019-05-07T04:20:12.481Z,3.3
2019-05-07T04:21:24.690Z,3.4
2019-05-07T04:22:36.918Z,3.4
2019-05-07T04:23:49.089Z,3.3
2019-05-07T04:25:01.292Z,3.3
2019-05-07T04:26:13.050Z,3.4
2019-05-07T04:27:25.695Z,3.4
2019-05-07T04:28:37.887Z,3.3
2019-05-07T04:29:50.109Z,3.3
2019-05-07T04:31:02.303Z,3.4
2019-05-07T04:32:14.501Z,3.3
2019-05-07T04:33:26.728Z,3.4
2019-05-07T04:34:38.895Z,3.4
2019-05-07T04:35:51.103Z,3.5
2019-05-07T04:37:03.303Z,3.4
2019-05-07T04:38:15.504Z,3.5
2019-05-07T04:39:27.709Z,3.7
2019-05-07T04:40:39.911Z,3.7
2019-05-07T04:41:52.115Z,3.9
2019-05-07T04:43:04.309Z,4.1
2019-05-07T04:44:16.501Z,4.1
2019-05-07T04:45:28.007Z,4.2
2019-05-07T04:46:40.919Z,4.2
2019-05-07T04:47:53.112Z,4.5
2019-05-07T04:49:05.319Z,4.5
2019-05-07T04:50:17.512Z,4.7
2019-05-07T04:51:29.717Z,4.7
2019-05-07T04:52:41.920Z,4.7
2019-05-07T04:53:54.154Z,4.8
2019-05-07T04:55:06.321Z,4.8
2019-05-07T04:56:18.053Z,5
2019-05-07T04:57:30.727Z,5.1
2019-05-07T04:58:42.926Z,5.3
2019-05-07T04:59:55.143Z,5.3
2019-05-07T05:01:07.325Z,5.4
2019-05-07T05:02:19.521Z,5.4
2019-05-07T05:03:31.722Z,5.5
2019-05-07T05:04:43.927Z,5.6
2019-05-07T05:05:56.129Z,5.6
2019-05-07T05:07:08.324Z,5.7
2019-05-07T05:08:20.532Z,5.8
2019-05-07T05:09:32.736Z,5.9
2019-05-07T05:10:44.937Z,5.8
2019-05-07T05:11:57.014Z,6
2019-05-07T05:13:09.034Z,6
2019-05-07T05:14:21.530Z,6.2
2019-05-07T05:15:33.736Z,6.4
2019-05-07T05:16:45.009Z,6.4
2019-05-07T05:17:58.134Z,6.5
2019-05-07T05:19:10.346Z,6.6
2019-05-07T05:20:22.053Z,6.7
2019-05-07T05:21:34.744Z,6.8
2019-05-07T05:22:46.945Z,6.9
2019-05-07T05:23:59.138Z,6.9
2019-05-07T05:25:11.344Z,7.2
2019-05-07T05:26:23.559Z,7.2
2019-05-07T05:27:35.742Z,7.2
2019-05-07T05:28:47.094Z,7.3
2019-05-07T05:30:00.150Z,7.4
2019-05-07T05:31:12.354Z,7.4
2019-05-07T05:32:24.553Z,7.3
2019-05-07T05:33:36.766Z,7.5
2019-05-07T05:34:48.954Z,7.5
2019-05-07T05:36:01.156Z,7.5
2019-05-07T05:37:13.344Z,7.7
2019-05-07T05:38:25.055Z,7.6
2019-05-07T05:39:37.075Z,7.6
2019-05-07T05:40:49.962Z,7.5
2019-05-07T05:42:02.017Z,7.7
2019-05-07T05:43:14.357Z,7.7
2019-05-07T05:44:26.589Z,7.7
2019-05-07T05:45:38.772Z,7.7
2019-05-07T05:46:50.962Z,7.6
2019-05-07T05:48:03.161Z,7.9
2019-05-07T05:49:15.355Z,7.9
2019-05-07T05:50:27.561Z,7.9
2019-05-07T05:51:39.770Z,7.9
2019-05-07T05:52:51.096Z,8.1
2019-05-07T05:54:04.171Z,8.1
2019-05-07T05:55:16.037Z,8.1
2019-05-07T05:56:28.581Z,8.1
2019-05-07T05:57:40.888Z,8.1
2019-05-07T05:58:53.021Z,8.4
2019-05-07T06:00:05.223Z,8.1
2019-05-07T06:01:17.369Z,8.2
2019-05-07T06:02:29.592Z,8.2
2019-05-07T06:03:41.000Z,8.1
2019-05-07T06:04:53.979Z,7.9
2019-05-07T06:06:06.172Z,7.8
2019-05-07T06:07:18.378Z,7.6
2019-05-07T06:08:30.577Z,7.6
2019-05-07T06:09:42.778Z,7.5
2019-05-07T06:10:54.981Z,7.6
2019-05-07T06:12:07.001Z,7.2
2019-05-07T06:13:19.392Z,7.5
2019-05-07T06:14:31.622Z,7.5
2019-05-07T06:15:43.783Z,7.7
2019-05-07T06:16:55.988Z,7.9
2019-05-07T06:18:08.187Z,8
2019-05-07T06:19:20.390Z,8
2019-05-07T06:20:32.587Z,8.2
2019-05-07T06:21:44.790Z,8.2
2019-05-07T06:22:56.991Z,8.3
2019-05-07T06:24:09.198Z,8.4
2019-05-07T06:25:21.395Z,8.6
2019-05-07T06:26:33.592Z,8.7
2019-05-07T06:27:45.799Z,8.6
2019-05-07T06:28:57.997Z,8.6
2019-05-07T06:30:10.197Z,8.7
2019-05-07T06:31:22.396Z,8.9
2019-05-07T06:32:34.603Z,9
2019-05-07T06:33:46.806Z,9.1
2019-05-07T06:34:59.006Z,9
2019-05-07T06:36:11.440Z,9.3
2019-05-07T06:37:23.418Z,9.2
2019-05-07T06:38:35.605Z,9.2
2019-05-07T06:39:47.800Z,9.3
2019-05-07T06:41:00.005Z,9.4
2019-05-07T06:42:12.205Z,9.3
2019-05-07T06:43:24.406Z,9.5
2019-05-07T06:44:36.615Z,9.6
2019-05-07T06:45:48.818Z,9.8
2019-05-07T06:47:01.013Z,9.7
2019-05-07T06:48:13.214Z,9.8
2019-05-07T06:49:25.040Z,9.9
2019-05-07T06:50:37.618Z,9.9
2019-05-07T06:51:49.813Z,9.8
2019-05-07T06:53:02.012Z,9.8
2019-05-07T06:54:14.328Z,9.5
2019-05-07T06:55:26.528Z,9.3
2019-05-07T06:56:38.079Z,8.7
2019-05-07T06:57:50.826Z,8.5
2019-05-07T06:59:03.019Z,8.2
2019-05-07T07:00:15.236Z,8.2
2019-05-07T07:01:27.468Z,8
2019-05-07T07:02:39.617Z,7.8
2019-05-07T07:03:51.824Z,7.9
2019-05-07T07:05:04.051Z,7.8
2019-05-07T07:06:16.221Z,8
2019-05-07T07:07:28.429Z,8.2
2019-05-07T07:08:40.627Z,8.6
2019-05-07T07:09:52.083Z,8.6
2019-05-07T07:11:05.032Z,8.5
2019-05-07T07:12:17.226Z,8.8
2019-05-07T07:13:29.431Z,9
2019-05-07T07:14:41.630Z,9.3
2019-05-07T07:15:53.833Z,9.2
2019-05-07T07:17:06.031Z,9.4
2019-05-07T07:18:18.275Z,9.5
2019-05-07T07:19:30.422Z,9.7
2019-05-07T07:20:42.064Z,9.7
2019-05-07T07:21:54.840Z,9.8
2019-05-07T07:23:07.033Z,9.7
2019-05-07T07:24:19.025Z,10
2019-05-07T07:25:31.572Z,10.1
2019-05-07T07:26:43.641Z,10.1
2019-05-07T07:27:55.841Z,10.3
2019-05-07T07:30:20.242Z,10.4
2019-05-07T07:31:32.468Z,10.5
2019-05-07T07:32:44.723Z,10.6
2019-05-07T07:33:56.856Z,10.7
2019-05-07T07:35:09.050Z,10.7
2019-05-07T07:36:21.242Z,10.5
2019-05-07T07:37:33.449Z,10.6
2019-05-07T07:38:45.681Z,10.6
2019-05-07T07:39:57.852Z,10.7
2019-05-07T07:41:10.045Z,10.7
2019-05-07T07:42:22.412Z,10.6
2019-05-07T07:43:34.468Z,10.7
2019-05-07T07:44:46.659Z,10.8
2019-05-07T07:45:58.857Z,10.9
2019-05-07T07:47:11.055Z,10.8
2019-05-07T07:49:35.457Z,10.8
2019-05-07T07:50:47.648Z,11.1
2019-05-07T07:51:59.867Z,11
2019-05-07T07:53:12.005Z,11.1
2019-05-07T07:54:24.266Z,11.2
2019-05-07T07:55:36.479Z,11.6
2019-05-07T07:58:00.865Z,11
2019-05-07T07:59:13.007Z,10.5
2019-05-07T08:00:25.271Z,9.9
2019-05-07T08:01:37.046Z,9.7
2019-05-07T08:02:49.673Z,9.6
2019-05-07T08:04:01.868Z,9.4
2019-05-07T08:05:14.074Z,9.3
2019-05-07T08:06:26.286Z,9
2019-05-07T08:07:38.487Z,9
2019-05-07T08:08:50.676Z,8.9
2019-05-07T08:10:02.870Z,8.8
2019-05-07T08:11:15.076Z,9.2
2019-05-07T08:12:27.280Z,9.5
2019-05-07T08:13:39.486Z,9.7
2019-05-07T08:14:51.680Z,10
2019-05-07T08:16:03.893Z,10.2
2019-05-07T08:17:16.092Z,10.6
2019-05-07T08:18:28.282Z,10.7
2019-05-07T08:19:40.484Z,11
2019-05-07T08:20:52.681Z,11
2019-05-07T08:22:04.886Z,11
2019-05-07T08:23:17.094Z,11.1
2019-05-07T08:24:29.029Z,11.2
2019-05-07T08:25:41.627Z,11.3
2019-05-07T08:26:53.698Z,11.4
2019-05-07T08:28:05.967Z,11.4
2019-05-07T08:29:18.099Z,11.8
2019-05-07T08:30:30.297Z,11.8
2019-05-07T08:31:42.503Z,11.8
2019-05-07T08:32:54.703Z,11.9
2019-05-07T08:34:06.090Z,12
2019-05-07T08:35:19.100Z,12.1
2019-05-07T08:36:31.301Z,12.3
2019-05-07T08:37:43.494Z,12.3
2019-05-07T08:38:55.700Z,12.4
2019-05-07T08:40:07.920Z,12
2019-05-07T08:41:20.010Z,12.3
2019-05-07T08:42:32.343Z,12.4
2019-05-07T08:43:44.504Z,12.5
2019-05-07T08:44:56.712Z,12.6
2019-05-07T08:46:08.009Z,12.6
2019-05-07T08:47:21.102Z,12.6
2019-05-07T08:48:33.322Z,12.8
2019-05-07T08:49:45.523Z,12.6
2019-05-07T08:50:57.728Z,12.6
2019-05-07T08:52:09.922Z,12.6
2019-05-07T08:53:22.151Z,12.7
2019-05-07T08:54:34.511Z,13
2019-05-07T08:56:59.071Z,13.2
2019-05-07T08:58:10.942Z,13.3
2019-05-07T08:59:23.131Z,13.1
2019-05-07T09:00:35.335Z,13.4
2019-05-07T09:01:47.534Z,13.5
2019-05-07T09:02:59.072Z,13.7
2019-05-07T09:04:11.934Z,13.6
2019-05-07T09:05:24.132Z,13.3
2019-05-07T09:06:36.329Z,13
2019-05-07T09:07:48.535Z,13
2019-05-07T09:09:00.727Z,13
2019-05-07T09:10:12.937Z,13
2019-05-07T09:11:25.138Z,13.1
2019-05-07T09:12:37.335Z,12.9
2019-05-07T09:13:49.543Z,13
2019-05-07T09:15:01.742Z,13.4
2019-05-07T09:16:13.094Z,13.4
2019-05-07T09:17:26.164Z,13.4
2019-05-07T09:18:38.003Z,13.5
2019-05-07T09:19:50.533Z,13.6
2019-05-07T09:21:02.732Z,13.8
2019-05-07T09:22:15.981Z,14
2019-05-07T09:23:27.141Z,14.1
2019-05-07T09:24:39.352Z,14.3
2019-05-07T09:25:51.548Z,14.4
2019-05-07T09:27:03.788Z,14.4
2019-05-07T09:28:15.946Z,14.4
2019-05-07T09:29:28.146Z,14.2
2019-05-07T09:30:40.353Z,14.3
2019-05-07T09:31:52.553Z,13.9
2019-05-07T09:33:04.749Z,13.9
2019-05-07T09:34:16.941Z,13.6
2019-05-07T09:35:29.166Z,13.7
2019-05-07T09:36:41.472Z,13.4
2019-05-07T09:37:53.578Z,12.8
2019-05-07T09:39:05.078Z,12.4
2019-05-07T09:40:17.956Z,11.7
2019-05-07T09:41:30.153Z,11.6
2019-05-07T09:42:42.003Z,11.3
2019-05-07T09:43:54.556Z,10.8
2019-05-07T09:45:06.747Z,10.5
2019-05-07T09:46:19.047Z,10.3
2019-05-07T09:47:31.153Z,10.1
2019-05-07T09:48:43.035Z,10
2019-05-07T09:49:55.563Z,9.7
2019-05-07T09:51:08.016Z,9.6
2019-05-07T09:52:19.963Z,9.6
2019-05-07T09:53:32.164Z,10.1
2019-05-07T09:54:44.365Z,10.5
2019-05-07T09:55:56.577Z,11.1
2019-05-07T09:57:08.773Z,11.6
2019-05-07T09:58:20.965Z,11.8
2019-05-07T09:59:33.156Z,12.2
2019-05-07T10:00:45.362Z,12.5
2019-05-07T10:01:57.005Z,12.1
2019-05-07T10:03:09.773Z,12.1
2019-05-07T10:04:21.972Z,12
2019-05-07T10:05:34.174Z,12.1
2019-05-07T10:06:46.371Z,11.9
2019-05-07T10:07:58.570Z,11.9
2019-05-07T10:09:10.776Z,11.6
2019-05-07T10:10:22.977Z,11.4
2019-05-07T10:11:35.184Z,11.2
2019-05-07T10:12:47.388Z,11.4
2019-05-07T10:13:59.583Z,11.6
2019-05-07T10:15:11.780Z,11.9
2019-05-07T10:16:24.041Z,11.6
2019-05-07T10:17:36.184Z,11.4
2019-05-07T10:18:48.383Z,11.4
2019-05-07T10:20:00.612Z,11.1
2019-05-07T10:21:12.793Z,10.9
2019-05-07T10:22:24.991Z,11.1
2019-05-07T10:23:37.186Z,11.5
2019-05-07T10:24:49.394Z,11.8
2019-05-07T10:26:01.615Z,12.4
2019-05-07T10:27:13.800Z,12.5
2019-05-07T10:28:25.999Z,12.9
2019-05-07T10:29:38.205Z,13.2
2019-05-07T10:30:50.392Z,13.5
2019-05-07T10:32:02.602Z,13
2019-05-07T10:33:15.883Z,12.8
2019-05-07T10:34:27.008Z,12.4
2019-05-07T10:35:39.201Z,12.1
2019-05-07T10:36:51.620Z,11.9
2019-05-07T10:38:03.610Z,11.6
2019-05-07T10:39:15.829Z,11.5
2019-05-07T10:40:28.010Z,11.4
2019-05-07T10:41:40.212Z,11.3
2019-05-07T10:42:52.408Z,10.9
2019-05-07T10:44:04.061Z,10.7
2019-05-07T10:45:16.808Z,10.7
2019-05-07T10:46:29.006Z,11.1
2019-05-07T10:47:41.021Z,11.7
2019-05-07T10:48:53.419Z,12.2
2019-05-07T10:50:05.708Z,12.7
2019-05-07T10:51:17.817Z,12.9
2019-05-07T10:52:30.012Z,12.7
2019-05-07T10:53:42.225Z,12.6
2019-05-07T10:56:06.655Z,12.2
2019-05-07T10:57:18.841Z,12.1
2019-05-07T10:58:31.154Z,11.8
2019-05-07T10:59:43.228Z,11.4
2019-05-07T11:00:55.428Z,11.2
2019-05-07T11:02:07.629Z,11
2019-05-07T11:03:19.822Z,10.9
2019-05-07T11:04:32.057Z,10.7
2019-05-07T11:05:44.239Z,10.7
2019-05-07T11:06:56.438Z,10.7
2019-05-07T11:08:08.645Z,11.4
2019-05-07T11:09:20.840Z,11.8
2019-05-07T11:10:33.056Z,12.3
2019-05-07T11:11:45.247Z,12.3
2019-05-07T11:12:57.443Z,12.3
2019-05-07T11:14:09.649Z,12.3
2019-05-07T11:15:21.085Z,12.3
2019-05-07T11:16:34.048Z,12.1
2019-05-07T11:17:46.248Z,11.8
2019-05-07T11:18:58.452Z,11.7
2019-05-07T11:20:10.656Z,11.6
2019-05-07T11:21:22.856Z,11.6
2019-05-07T11:22:35.058Z,11.4
2019-05-07T11:23:47.257Z,11.4
2019-05-07T11:24:59.456Z,11.4
2019-05-07T11:26:11.702Z,11.1
2019-05-07T11:27:23.867Z,11
2019-05-07T11:28:36.006Z,10.7
2019-05-07T11:29:48.263Z,10.5
2019-05-07T11:31:00.461Z,10.4
2019-05-07T11:32:12.666Z,10.3
2019-05-07T11:33:24.864Z,10.3
2019-05-07T11:34:37.098Z,10.3
2019-05-07T11:35:49.289Z,10.4
2019-05-07T11:37:01.466Z,10.7
2019-05-07T11:38:13.676Z,10.7
2019-05-07T11:39:25.882Z,10.8
2019-05-07T11:40:38.000Z,11.1
2019-05-07T11:41:50.027Z,11.7
2019-05-07T11:43:02.482Z,12
2019-05-07T11:44:16.406Z,12.6
2019-05-07T11:45:26.881Z,12.7
2019-05-07T11:46:39.070Z,12.9
2019-05-07T11:47:51.360Z,12.7
2019-05-07T11:49:03.480Z,13.1
2019-05-07T11:50:15.716Z,13.4
2019-05-07T11:51:27.886Z,13.5
2019-05-07T11:52:40.083Z,13.8
2019-05-07T11:53:52.310Z,13.8
2019-05-07T11:55:04.496Z,13.9
2019-05-07T11:56:16.958Z,14.1
2019-05-07T11:57:28.885Z,14.1
2019-05-07T11:58:41.139Z,13.9
2019-05-07T11:59:53.291Z,13.7
2019-05-07T12:01:05.484Z,12.9
2019-05-07T12:02:17.693Z,12.5
2019-05-07T12:03:29.891Z,12.2
2019-05-07T12:04:42.095Z,12
2019-05-07T12:05:54.297Z,12
2019-05-07T12:07:06.503Z,11.8
2019-05-07T12:08:19.121Z,11.9
2019-05-07T12:09:30.885Z,11.8
2019-05-07T12:10:43.090Z,11.8
2019-05-07T12:11:55.296Z,12
2019-05-07T12:13:07.550Z,11.8
2019-05-07T12:14:19.693Z,11.9
2019-05-07T12:15:31.891Z,11.9
2019-05-07T12:16:44.146Z,12
2019-05-07T12:17:56.325Z,12.4
2019-05-07T12:19:08.525Z,12.8
2019-05-07T12:20:20.796Z,13.4
2019-05-07T12:21:32.908Z,13.3
2019-05-07T12:22:45.142Z,13.4
2019-05-07T12:23:57.409Z,13.2
2019-05-07T12:25:09.500Z,13.1
2019-05-07T12:26:21.914Z,12.8
2019-05-07T12:27:33.902Z,12.5
2019-05-07T12:28:46.108Z,12.2
2019-05-07T12:29:58.309Z,11.9
2019-05-07T12:31:10.507Z,11.7
2019-05-07T12:32:22.887Z,11.6
2019-05-07T12:33:34.919Z,11.6
2019-05-07T12:34:47.119Z,11.6
2019-05-07T12:35:59.301Z,11.7
2019-05-07T12:37:11.490Z,12.1
2019-05-07T12:38:23.069Z,12.2
2019-05-07T12:39:35.884Z,12.6
2019-05-07T12:40:48.093Z,13.1
2019-05-07T12:42:00.293Z,13.3
2019-05-07T12:43:12.566Z,13.5
2019-05-07T12:44:24.692Z,13.7
2019-05-07T12:46:49.080Z,13.6
2019-05-07T12:48:01.284Z,13.4
2019-05-07T12:49:13.047Z,13.6
2019-05-07T12:50:25.686Z,13.2
2019-05-07T12:51:37.966Z,12.7
2019-05-07T12:52:50.118Z,12.8
2019-05-07T12:54:02.279Z,12.9
2019-05-07T12:55:14.479Z,13.1
2019-05-07T12:56:26.678Z,13.4
2019-05-07T12:57:38.866Z,13.7
2019-05-07T12:58:51.174Z,14
2019-05-07T13:00:03.354Z,14
2019-05-07T13:01:15.495Z,14.3
2019-05-07T13:02:27.709Z,14.4
2019-05-07T13:03:39.087Z,14.5
2019-05-07T13:04:52.068Z,14.5
2019-05-07T13:06:04.272Z,14.6
2019-05-07T13:07:16.453Z,14.5
2019-05-07T13:08:28.658Z,14.1
2019-05-07T13:09:40.856Z,13.5
2019-05-07T13:10:53.058Z,13.3
2019-05-07T13:12:05.255Z,13.4
2019-05-07T13:13:17.464Z,13.6
2019-05-07T13:14:29.657Z,13.7
2019-05-07T13:15:41.862Z,13.9
2019-05-07T13:16:54.056Z,14.3
2019-05-07T13:18:06.258Z,14.3
2019-05-07T13:19:18.488Z,14.4
2019-05-07T13:20:30.651Z,14.4
2019-05-07T13:21:42.851Z,14.2
2019-05-07T13:22:55.061Z,14.2
2019-05-07T13:24:07.313Z,13.7
2019-05-07T13:25:19.458Z,13.2
2019-05-07T13:26:31.728Z,13.1
2019-05-07T13:27:43.850Z,13.3
2019-05-07T13:28:56.075Z,13.4
2019-05-07T13:30:08.254Z,13.4
2019-05-07T13:31:20.455Z,13.2
2019-05-07T13:32:32.648Z,12.8
2019-05-07T13:33:44.083Z,12.5
2019-05-07T13:34:57.034Z,12.3
2019-05-07T13:36:09.024Z,12.1
2019-05-07T13:37:21.490Z,12
2019-05-07T13:38:33.637Z,12.3
2019-05-07T13:39:45.835Z,12.8
2019-05-07T13:40:58.034Z,13
2019-05-07T13:42:10.235Z,13.2
2019-05-07T13:43:22.452Z,12.9
2019-05-07T13:44:34.640Z,12.9
2019-05-07T13:45:46.987Z,13
2019-05-07T13:46:59.022Z,13.1
2019-05-07T13:48:11.234Z,13.2
2019-05-07T13:49:23.428Z,13.2
2019-05-07T13:50:35.617Z,12.9
2019-05-07T13:51:47.844Z,12.7
2019-05-07T13:53:00.051Z,12.9
2019-05-07T13:54:12.225Z,12.9
2019-05-07T13:55:24.445Z,13
2019-05-07T13:56:36.625Z,12.7
2019-05-07T13:57:48.808Z,12.5
2019-05-07T13:59:01.031Z,12.6
2019-05-07T14:00:13.217Z,12.7
2019-05-07T14:01:25.422Z,12.9
2019-05-07T14:02:37.627Z,13.1
2019-05-07T14:03:49.811Z,13.2
2019-05-07T14:05:02.010Z,13.3
2019-05-07T14:06:14.833Z,13.4
2019-05-07T14:07:26.407Z,13.3
2019-05-07T14:08:38.677Z,13.4
2019-05-07T14:09:50.806Z,13.5
2019-05-07T14:11:03.004Z,13.6
2019-05-07T14:12:15.204Z,13.5
2019-05-07T14:13:27.483Z,13.6
2019-05-07T14:14:39.600Z,13.7
2019-05-07T14:15:51.803Z,13.9
2019-05-07T14:17:04.024Z,14
2019-05-07T14:18:16.203Z,14
2019-05-07T14:19:28.405Z,14
2019-05-07T14:20:40.608Z,13.9
2019-05-07T14:21:52.008Z,14
2019-05-07T14:23:04.995Z,13.9
2019-05-07T14:24:17.211Z,13.9
2019-05-07T14:25:29.395Z,13.8
2019-05-07T14:26:41.594Z,13.7
2019-05-07T14:27:53.792Z,13.5
2019-05-07T14:29:05.994Z,13.4
2019-05-07T14:30:18.194Z,13.4
2019-05-07T14:31:30.639Z,13.3
2019-05-07T14:32:42.593Z,13.1
2019-05-07T14:33:54.798Z,12.9
2019-05-07T14:35:06.979Z,12.8
2019-05-07T14:36:19.187Z,12.3
2019-05-07T14:37:31.038Z,12.5
2019-05-07T14:38:43.581Z,12.4
2019-05-07T14:39:55.820Z,12.5
2019-05-07T14:41:08.045Z,12.5
2019-05-07T14:42:20.184Z,12.5
2019-05-07T14:43:32.038Z,12.6
2019-05-07T14:44:44.057Z,12.4
2019-05-07T14:45:56.772Z,12.6
2019-05-07T14:47:08.977Z,12.4
2019-05-07T14:48:21.016Z,12.4
2019-05-07T14:49:33.371Z,12.4
2019-05-07T14:50:45.613Z,12.5
2019-05-07T14:51:57.775Z,12.3
2019-05-07T14:53:09.977Z,12
2019-05-07T14:54:22.169Z,11.7
2019-05-07T14:55:34.370Z,11.5
2019-05-07T14:56:46.561Z,11.5
2019-05-07T14:57:58.755Z,11.6
2019-05-07T14:59:10.973Z,11.4
2019-05-07T15:00:23.186Z,11.5
2019-05-07T15:01:35.362Z,11.6
2019-05-07T15:02:47.564Z,11.9
2019-05-07T15:03:59.763Z,11.9
2019-05-07T15:05:11.963Z,12
2019-05-07T15:06:24.162Z,12.2
2019-05-07T15:07:36.364Z,12.3
2019-05-07T15:08:48.561Z,12.3
2019-05-07T15:10:00.075Z,12.3
2019-05-07T15:11:12.945Z,12.4
2019-05-07T15:12:25.152Z,12.3
2019-05-07T15:13:37.035Z,12.5
2019-05-07T15:14:49.546Z,12.3
2019-05-07T15:16:01.773Z,12.5
2019-05-07T15:17:13.944Z,12.6
2019-05-07T15:18:26.152Z,12.4
2019-05-07T15:19:38.353Z,12.4
2019-05-07T15:20:50.546Z,12.5
2019-05-07T15:22:02.752Z,12.5
2019-05-07T15:23:14.981Z,12.3
2019-05-07T15:24:27.151Z,12
2019-05-07T15:25:39.349Z,12
2019-05-07T15:26:51.062Z,12
2019-05-07T15:28:03.818Z,12
2019-05-07T15:29:16.083Z,12
2019-05-07T15:30:28.150Z,12
2019-05-07T15:31:40.034Z,12.2
2019-05-07T15:32:52.541Z,12.3
2019-05-07T15:34:04.738Z,12.3
2019-05-07T15:35:16.942Z,12.4
2019-05-07T15:36:29.141Z,12.5
2019-05-07T15:37:41.339Z,12.3
2019-05-07T15:38:53.541Z,12.3
2019-05-07T15:40:05.749Z,12.3
2019-05-07T15:41:17.948Z,12.3
2019-05-07T15:42:30.057Z,12.3
2019-05-07T15:43:42.324Z,12.2
2019-05-07T15:44:54.532Z,12.2
2019-05-07T15:47:18.930Z,11.9
2019-05-07T15:48:31.001Z,11.9
2019-05-07T15:49:43.334Z,12
2019-05-07T15:50:55.525Z,11.9
2019-05-07T15:52:07.747Z,11.9
2019-05-07T15:53:19.093Z,11.9
2019-05-07T15:54:32.126Z,12
2019-05-07T15:55:44.517Z,11.9
2019-05-07T15:56:56.542Z,12.1
2019-05-07T15:58:08.072Z,12
2019-05-07T15:59:20.925Z,12
2019-05-07T16:00:33.012Z,12
2019-05-07T16:01:45.330Z,11.9
2019-05-07T16:02:57.524Z,11.9
2019-05-07T16:04:09.072Z,11.8
2019-05-07T16:05:21.922Z,11.8
2019-05-07T16:06:34.122Z,11.8
2019-05-07T16:07:46.326Z,11.7
2019-05-07T16:08:58.532Z,11.9
2019-05-07T16:10:10.712Z,11.8
2019-05-07T16:11:22.914Z,11.6
2019-05-07T16:12:35.113Z,11.7
2019-05-07T16:13:47.313Z,11.7
2019-05-07T16:14:59.508Z,11.7
2019-05-07T16:16:11.707Z,11.7
2019-05-07T16:17:23.091Z,11.6
2019-05-07T16:18:36.113Z,11.5
2019-05-07T16:19:48.333Z,11.5
2019-05-07T16:21:00.514Z,11.3
2019-05-07T16:22:12.699Z,11.5
2019-05-07T16:23:24.923Z,11.4
2019-05-07T16:24:37.010Z,11.2
2019-05-07T16:25:49.345Z,11.1
2019-05-07T16:27:01.511Z,11.3
2019-05-07T16:28:13.706Z,11.2
2019-05-07T16:30:38.107Z,11.2
2019-05-07T16:31:50.030Z,11.1
2019-05-07T16:33:02.502Z,11
2019-05-07T16:34:14.699Z,11